Time;durP1;ratioP1;P1;durP2;ratioP2;P2;SDS_P1;SDS_P2;PMS_P1;PMS_P2;Temp;Humidity;BMP_temperature;BMP_pressure;BME280_temperature;BME280_humidity;BME280_pressure;Samples;Min_cycle;Max_cycle;Signal;HPM_P1;HPM_P2
2023/09/23 00:01:04;;;;;;;0.57;0.40;;;13.30;99.90;;;;;;5051191;28;20201;-57
2023/09/23 00:03:33;;;;;;;1.05;0.32;;;13.30;99.90;;;;;;5051020;28;20205;-57
2023/09/23 00:06:02;;;;;;;5.03;0.32;;;13.30;99.90;;;;;;5051133;28;20291;-57
2023/09/23 00:08:30;;;;;;;0.63;0.30;;;13.30;99.90;;;;;;5050721;28;20206;-58
2023/09/23 00:10:58;;;;;;;1.65;0.30;;;13.40;99.90;;;;;;5051004;28;20201;-57
2023/09/23 00:13:27;;;;;;;1.15;0.40;;;13.40;99.90;;;;;;5050924;28;20657;-57
2023/09/23 00:15:56;;;;;;;2.33;0.30;;;13.40;99.90;;;;;;5050942;28;20718;-58
2023/09/23 00:18:24;;;;;;;2.80;0.30;;;13.40;99.90;;;;;;5050712;28;20206;-58
2023/09/23 00:20:52;;;;;;;3.65;0.40;;;13.40;99.90;;;;;;5050991;28;20222;-57
2023/09/23 00:23:21;;;;;;;0.30;0.30;;;13.40;99.90;;;;;;5050982;28;20245;-58
2023/09/23 00:25:49;;;;;;;1.48;0.30;;;13.40;99.90;;;;;;5043948;28;20249;-58
2023/09/23 00:28:19;;;;;;;0.30;0.30;;;13.40;99.90;;;;;;5050744;28;20221;-59
2023/09/23 00:30:48;;;;;;;0.65;0.40;;;13.30;99.90;;;;;;5043135;28;20207;-58
2023/09/23 00:33:17;;;;;;;0.65;0.38;;;13.30;99.90;;;;;;5050903;28;20213;-58
2023/09/23 00:35:47;;;;;;;1.65;0.30;;;13.30;99.90;;;;;;5049500;28;20230;-59
2023/09/23 00:38:18;;;;;;;1.40;0.30;;;13.20;99.90;;;;;;5050292;28;20206;-58
2023/09/23 00:40:47;;;;;;;1.58;0.40;;;13.20;99.90;;;;;;5049817;28;20228;-58
2023/09/23 00:43:17;;;;;;;1.85;0.40;;;13.20;99.90;;;;;;5050917;28;20205;-57
2023/09/23 00:45:47;;;;;;;1.75;0.30;;;13.10;99.90;;;;;;5050578;28;20221;-58
2023/09/23 00:48:20;;;;;;;4.22;0.30;;;13.10;99.90;;;;;;5050396;28;20202;-57
2023/09/23 00:50:50;;;;;;;2.30;0.77;;;13.00;99.90;;;;;;5046459;28;20205;-58
2023/09/23 00:53:18;;;;;;;3.83;0.40;;;13.00;99.90;;;;;;5050827;28;20586;-58
2023/09/23 00:55:48;;;;;;;2.72;0.50;;;13.00;99.90;;;;;;5050815;28;20309;-58
2023/09/23 00:58:19;;;;;;;0.43;0.30;;;13.00;99.90;;;;;;5050350;28;20210;-58
2023/09/23 01:00:48;;;;;;;0.30;0.30;;;13.00;99.90;;;;;;5044022;28;20767;-56
2023/09/23 01:03:18;;;;;;;1.95;0.50;;;13.00;99.90;;;;;;5054287;28;20604;-57
2023/09/23 01:05:46;;;;;;;2.47;0.40;;;13.00;99.90;;;;;;5054061;28;20226;-59
2023/09/23 01:08:18;;;;;;;3.40;0.80;;;12.90;99.90;;;;;;5053793;28;20202;-58
2023/09/23 01:10:46;;;;;;;2.70;0.50;;;12.90;99.90;;;;;;5054072;28;20198;-57
2023/09/23 01:13:14;;;;;;;0.30;0.30;;;12.90;99.90;;;;;;5053403;28;20237;-58
2023/09/23 01:15:43;;;;;;;1.00;0.30;;;12.80;99.90;;;;;;5053384;28;20291;-58
2023/09/23 01:18:18;;;;;;;1.10;0.20;;;12.80;99.90;;;;;;5053653;28;20729;-59
2023/09/23 01:20:49;;;;;;;0.30;0.30;;;12.80;99.90;;;;;;5053787;28;20222;-58
2023/09/23 01:23:20;;;;;;;0.47;0.20;;;12.80;99.90;;;;;;5053736;28;20210;-57
2023/09/23 01:25:48;;;;;;;3.20;0.50;;;12.80;99.90;;;;;;5045707;28;20589;-58
2023/09/23 01:28:15;;;;;;;2.75;0.40;;;12.80;99.90;;;;;;5053170;28;20584;-58
2023/09/23 01:30:44;;;;;;;0.65;0.32;;;12.70;99.90;;;;;;5053909;28;20289;-57
2023/09/23 01:33:13;;;;;;;2.92;0.30;;;12.70;99.90;;;;;;5044903;28;20716;-58
2023/09/23 01:35:42;;;;;;;1.40;0.30;;;12.70;99.90;;;;;;5050815;28;20674;-58
2023/09/23 01:38:11;;;;;;;5.47;0.30;;;12.70;99.90;;;;;;5053666;28;20210;-58
2023/09/23 01:40:40;;;;;;;0.45;0.30;;;12.70;99.90;;;;;;5053264;28;20318;-58
2023/09/23 01:43:09;;;;;;;0.70;0.50;;;12.70;99.90;;;;;;5053559;28;20682;-57
2023/09/23 01:45:38;;;;;;;1.75;0.30;;;12.70;99.90;;;;;;5053259;28;20695;-58
2023/09/23 01:48:07;;;;;;;1.67;0.30;;;12.60;99.90;;;;;;5053160;28;20821;-57
2023/09/23 01:50:35;;;;;;;0.85;0.30;;;12.60;99.90;;;;;;5052733;28;20294;-58
2023/09/23 01:53:03;;;;;;;1.27;0.30;;;12.60;99.90;;;;;;5053333;28;20264;-57
2023/09/23 01:55:31;;;;;;;0.32;0.22;;;12.60;99.90;;;;;;5053005;28;20237;-59
2023/09/23 01:58:00;;;;;;;2.30;0.40;;;12.60;99.90;;;;;;5053067;28;20209;-56
2023/09/23 02:00:29;;;;;;;0.90;0.30;;;12.60;99.90;;;;;;5052631;28;20316;-57
2023/09/23 02:02:57;;;;;;;1.75;0.30;;;12.60;99.90;;;;;;5053059;28;20206;-59
2023/09/23 02:05:27;;;;;;;3.13;0.40;;;12.60;99.90;;;;;;5052945;28;20313;-58
2023/09/23 02:07:55;;;;;;;2.30;0.40;;;12.60;99.90;;;;;;5052986;28;20717;-59
2023/09/23 02:10:26;;;;;;;0.40;0.20;;;12.60;99.90;;;;;;5052731;28;20202;-59
2023/09/23 02:12:55;;;;;;;1.88;0.35;;;12.60;99.90;;;;;;5053143;28;20205;-58
2023/09/23 02:15:24;;;;;;;4.05;0.32;;;12.60;99.90;;;;;;5052787;28;20226;-58
2023/09/23 02:17:53;;;;;;;1.85;0.50;;;12.60;99.90;;;;;;5044892;28;20260;-58
2023/09/23 02:20:22;;;;;;;0.52;0.52;;;12.60;99.90;;;;;;5052449;28;20226;-57
2023/09/23 02:22:53;;;;;;;3.20;0.50;;;12.60;99.90;;;;;;5052827;28;20206;-57
2023/09/23 02:25:25;;;;;;;1.67;0.32;;;12.60;99.90;;;;;;5052901;28;20741;-59
2023/09/23 02:27:54;;;;;;;2.95;0.40;;;12.60;99.90;;;;;;5052422;28;20237;-57
2023/09/23 02:30:24;;;;;;;6.05;0.40;;;12.60;99.90;;;;;;5052185;28;20579;-58
2023/09/23 02:32:52;;;;;;;3.17;0.30;;;12.60;99.90;;;;;;5052788;28;20202;-58
2023/09/23 02:35:21;;;;;;;0.50;0.50;;;12.60;99.90;;;;;;5052231;28;20233;-59
2023/09/23 02:37:49;;;;;;;1.85;0.30;;;12.50;99.90;;;;;;5052311;28;20558;-58
2023/09/23 02:40:17;;;;;;;4.28;0.35;;;12.50;99.90;;;;;;5052057;28;20218;-58
2023/09/23 02:42:48;;;;;;;0.30;0.30;;;12.40;99.90;;;;;;5052556;28;20257;-58
2023/09/23 02:45:16;;;;;;;1.00;0.30;;;12.40;99.90;;;;;;5052092;28;20226;-58
2023/09/23 02:47:46;;;;;;;3.55;0.40;;;12.40;99.90;;;;;;5052072;28;20255;-57
2023/09/23 02:50:15;;;;;;;3.90;0.30;;;12.40;99.90;;;;;;5052205;28;20206;-58
2023/09/23 02:52:44;;;;;;;2.10;0.35;;;12.40;99.90;;;;;;5051821;28;20210;-59
2023/09/23 02:55:14;;;;;;;1.20;0.30;;;12.40;99.90;;;;;;5052133;28;20230;-58
2023/09/23 02:57:45;;;;;;;1.75;0.40;;;12.40;99.90;;;;;;5052130;28;20580;-57
2023/09/23 03:00:18;;;;;;;0.98;0.43;;;12.30;99.90;;;;;;5051997;28;20255;-57
2023/09/23 03:02:53;;;;;;;2.05;0.30;;;12.30;99.90;;;;;;5051783;28;20206;-57
2023/09/23 03:05:26;;;;;;;2.08;0.45;;;12.20;99.90;;;;;;5051678;28;20245;-58
2023/09/23 03:07:57;;;;;;;0.93;0.40;;;12.20;99.90;;;;;;5043857;28;20209;-56
2023/09/23 03:10:31;;;;;;;4.57;0.77;;;12.10;99.90;;;;;;5051708;28;20304;-56
2023/09/23 03:13:06;;;;;;;1.77;0.60;;;12.10;99.90;;;;;;5044472;28;20586;-58
2023/09/23 03:15:41;;;;;;;4.82;0.70;;;12.10;99.90;;;;;;5051537;28;20229;-58
2023/09/23 03:18:11;;;;;;;3.03;0.50;;;12.10;99.90;;;;;;5051623;28;20241;-58
2023/09/23 03:20:40;;;;;;;2.83;0.40;;;12.10;99.90;;;;;;5051282;28;20629;-57
2023/09/23 03:23:10;;;;;;;5.32;0.52;;;12.10;99.90;;;;;;5051122;28;20232;-59
2023/09/23 03:25:45;;;;;;;0.85;0.55;;;12.00;99.90;;;;;;5051301;28;20230;-57
2023/09/23 03:28:15;;;;;;;0.30;0.30;;;12.00;99.90;;;;;;5051187;28;20213;-58
2023/09/23 03:30:47;;;;;;;3.20;0.45;;;11.90;99.90;;;;;;5051370;28;20198;-58
2023/09/23 03:33:18;;;;;;;0.52;0.52;;;11.90;99.90;;;;;;5051398;28;20209;-58
2023/09/23 03:35:47;;;;;;;2.53;0.40;;;11.90;99.90;;;;;;5051023;28;20320;-57
2023/09/23 03:38:16;;;;;;;2.40;0.50;;;11.90;99.90;;;;;;5051363;28;20214;-57
2023/09/23 03:40:50;;;;;;;0.47;0.43;;;11.90;99.90;;;;;;5050714;28;20691;-58
2023/09/23 03:43:18;;;;;;;2.55;0.50;;;11.80;99.90;;;;;;5051149;28;20666;-58
2023/09/23 03:45:47;;;;;;;0.45;0.40;;;11.90;99.90;;;;;;5051141;28;20261;-57
2023/09/23 03:48:16;;;;;;;1.92;0.47;;;11.80;99.90;;;;;;5051233;28;20217;-57
2023/09/23 03:50:44;;;;;;;3.47;0.57;;;11.80;99.90;;;;;;5050905;28;20202;-58
2023/09/23 03:53:12;;;;;;;2.08;0.57;;;11.80;99.90;;;;;;5051088;28;20299;-58
2023/09/23 03:55:41;;;;;;;5.85;0.50;;;11.80;99.90;;;;;;5051010;28;20233;-58
2023/09/23 03:58:09;;;;;;;2.53;0.80;;;11.70;99.90;;;;;;5050905;28;20201;-57
2023/09/23 04:00:37;;;;;;;1.15;0.50;;;11.70;99.90;;;;;;5050692;28;20210;-56
2023/09/23 04:03:05;;;;;;;1.85;0.80;;;11.70;99.90;;;;;;5051271;28;20197;-58
2023/09/23 04:05:35;;;;;;;1.92;0.63;;;11.70;99.90;;;;;;5050275;28;20221;-57
2023/09/23 04:08:02;;;;;;;1.40;0.73;;;11.70;99.90;;;;;;5050808;28;20226;-58
2023/09/23 04:10:30;;;;;;;3.90;0.95;;;11.70;99.90;;;;;;5050697;28;20206;-57
2023/09/23 04:12:58;;;;;;;2.97;0.77;;;11.60;99.90;;;;;;5051263;28;20263;-58
2023/09/23 04:15:26;;;;;;;1.75;0.60;;;11.60;99.90;;;;;;5050622;28;20735;-58
2023/09/23 04:17:54;;;;;;;1.52;0.80;;;11.60;99.90;;;;;;5050858;28;20197;-58
2023/09/23 04:20:22;;;;;;;1.60;0.88;;;11.60;99.90;;;;;;5050642;28;20268;-58
2023/09/23 04:22:51;;;;;;;0.70;0.57;;;11.60;99.90;;;;;;5051159;28;20237;-58
2023/09/23 04:25:21;;;;;;;3.03;0.90;;;11.60;99.90;;;;;;5050506;28;20222;-57
2023/09/23 04:27:50;;;;;;;0.98;0.90;;;11.60;99.90;;;;;;5050628;28;20202;-59
2023/09/23 04:30:18;;;;;;;3.08;0.90;;;11.60;99.90;;;;;;5050801;28;20206;-58
2023/09/23 04:32:46;;;;;;;2.78;0.77;;;11.60;99.90;;;;;;5050683;28;20206;-58
2023/09/23 04:35:15;;;;;;;2.00;0.70;;;11.60;99.90;;;;;;5051246;28;20329;-58
2023/09/23 04:37:44;;;;;;;3.28;1.00;;;11.50;99.90;;;;;;5053913;28;20560;-58
2023/09/23 04:40:15;;;;;;;2.17;0.95;;;11.50;99.90;;;;;;5047530;28;20212;-56
2023/09/23 04:42:43;;;;;;;2.17;1.00;;;11.50;99.90;;;;;;5054466;28;20232;-56
2023/09/23 04:45:11;;;;;;;4.10;1.05;;;11.50;99.90;;;;;;5053968;28;20308;-58
2023/09/23 04:47:40;;;;;;;2.22;1.20;;;11.40;99.90;;;;;;5054329;28;20206;-58
2023/09/23 04:50:11;;;;;;;3.10;1.20;;;11.50;99.90;;;;;;5053663;28;20300;-57
2023/09/23 04:52:42;;;;;;;1.73;1.00;;;11.50;99.90;;;;;;5054372;28;20332;-56
2023/09/23 04:55:11;;;;;;;6.13;1.00;;;11.50;99.90;;;;;;5050257;28;20234;-58
2023/09/23 04:57:40;;;;;;;1.10;0.98;;;11.40;99.90;;;;;;5054123;28;20210;-58
2023/09/23 05:00:10;;;;;;;1.58;0.90;;;11.50;99.90;;;;;;5053980;28;20694;-57
2023/09/23 05:02:40;;;;;;;1.60;0.90;;;11.50;99.90;;;;;;5054010;28;20241;-57
2023/09/23 05:05:09;;;;;;;2.83;1.20;;;11.50;99.90;;;;;;5053159;28;20240;-56
2023/09/23 05:07:38;;;;;;;1.05;1.00;;;11.40;99.90;;;;;;5054137;28;20209;-58
2023/09/23 05:10:08;;;;;;;1.08;1.02;;;11.40;99.90;;;;;;5053721;28;20663;-58
2023/09/23 05:12:36;;;;;;;1.88;1.00;;;11.40;99.90;;;;;;5053718;28;20206;-58
2023/09/23 05:15:09;;;;;;;3.80;1.20;;;11.40;99.90;;;;;;5053887;28;20643;-58
2023/09/23 05:17:37;;;;;;;3.33;1.45;;;11.40;99.90;;;;;;5053699;28;20674;-58
2023/09/23 05:20:16;;;;;;;3.90;1.00;;;11.40;99.90;;;;;;5053519;28;20205;-58
2023/09/23 05:22:44;;;;;;;2.22;1.10;;;11.40;99.90;;;;;;5053490;28;20222;-58
2023/09/23 05:25:13;;;;;;;3.08;1.40;;;11.30;99.90;;;;;;5053444;28;20229;-58
2023/09/23 05:27:42;;;;;;;2.08;1.50;;;11.30;99.90;;;;;;5053609;28;20289;-56
2023/09/23 05:30:12;;;;;;;1.38;1.30;;;11.30;99.90;;;;;;5053006;28;20210;-57
2023/09/23 05:32:43;;;;;;;4.80;1.65;;;11.30;99.90;;;;;;5053073;28;20717;-57
2023/09/23 05:35:11;;;;;;;1.95;1.70;;;11.30;99.90;;;;;;5051746;28;20244;-57
2023/09/23 05:37:40;;;;;;;4.63;1.48;;;11.30;99.90;;;;;;5052149;28;20714;-56
2023/09/23 05:40:10;;;;;;;2.47;1.83;;;11.30;99.90;;;;;;5052711;28;20209;-57
2023/09/23 05:42:38;;;;;;;1.45;1.20;;;11.30;99.90;;;;;;5053283;28;20222;-59
2023/09/23 05:45:08;;;;;;;4.90;1.45;;;11.30;99.90;;;;;;5053085;28;20218;-58
2023/09/23 05:47:37;;;;;;;3.40;1.60;;;11.30;99.90;;;;;;5052503;28;20210;-57
2023/09/23 05:50:08;;;;;;;4.53;1.70;;;11.30;99.90;;;;;;5044862;28;20214;-56
2023/09/23 05:52:36;;;;;;;1.73;1.58;;;11.30;99.90;;;;;;5052592;28;20567;-56
2023/09/23 05:55:05;;;;;;;5.55;1.73;;;11.30;99.90;;;;;;5052191;28;20299;-57
2023/09/23 05:57:34;;;;;;;1.60;1.50;;;11.30;99.90;;;;;;5052202;28;20206;-57
2023/09/23 06:00:05;;;;;;;2.60;1.98;;;11.30;99.90;;;;;;5052639;28;20236;-63
2023/09/23 06:02:33;;;;;;;1.73;1.58;;;11.30;99.90;;;;;;5052805;28;20261;-63
2023/09/23 06:05:02;;;;;;;7.13;2.05;;;11.30;99.90;;;;;;5051775;28;20226;-63
2023/09/23 06:07:31;;;;;;;5.45;2.08;;;11.30;99.90;;;;;;5052922;28;20212;-63
2023/09/23 06:09:59;;;;;;;2.40;1.75;;;11.40;99.90;;;;;;5052453;28;20625;-63
2023/09/23 06:12:29;;;;;;;3.40;1.98;;;11.40;99.90;;;;;;5052962;28;20229;-63
2023/09/23 06:14:58;;;;;;;3.08;1.75;;;11.40;99.90;;;;;;5052276;28;20714;-63
2023/09/23 06:17:27;;;;;;;3.67;1.88;;;11.40;99.90;;;;;;5052963;28;20210;-63
2023/09/23 06:19:56;;;;;;;3.42;1.90;;;11.40;99.90;;;;;;5052607;28;20209;-63
2023/09/23 06:22:27;;;;;;;2.03;1.88;;;11.40;99.90;;;;;;5052558;28;20771;-63
2023/09/23 06:24:55;;;;;;;2.38;2.17;;;11.50;99.90;;;;;;5052386;28;20230;-63
2023/09/23 06:27:23;;;;;;;4.18;2.05;;;11.50;99.90;;;;;;5052242;28;20587;-63
2023/09/23 06:29:53;;;;;;;3.45;2.05;;;11.50;99.90;;;;;;5051965;28;20248;-63
2023/09/23 06:32:20;;;;;;;5.10;2.10;;;11.60;99.90;;;;;;5052412;28;20237;-63
2023/09/23 06:34:48;;;;;;;3.75;1.77;;;11.70;99.90;;;;;;5052137;28;20254;-63
2023/09/23 06:37:16;;;;;;;6.50;2.35;;;11.70;99.90;;;;;;5052585;28;20216;-63
2023/09/23 06:39:46;;;;;;;2.58;1.67;;;11.70;99.90;;;;;;5051707;28;20210;-63
2023/09/23 06:42:13;;;;;;;2.70;2.25;;;11.70;99.90;;;;;;5052341;28;20238;-63
2023/09/23 06:44:42;;;;;;;4.60;2.00;;;11.80;99.90;;;;;;5052040;28;20718;-63
2023/09/23 06:47:10;;;;;;;1.80;1.70;;;11.80;99.90;;;;;;5052117;28;20724;-63
2023/09/23 06:49:38;;;;;;;2.33;1.65;;;11.80;99.90;;;;;;5051895;28;20206;-63
2023/09/23 06:52:06;;;;;;;2.13;1.80;;;11.90;99.90;;;;;;5051993;28;20198;-63
2023/09/23 06:54:34;;;;;;;3.92;2.22;;;11.90;99.90;;;;;;5051205;28;20213;-63
2023/09/23 06:57:03;;;;;;;6.30;2.00;;;12.00;99.90;;;;;;5051120;28;20220;-63
2023/09/23 06:59:31;;;;;;;2.63;2.00;;;12.10;99.90;;;;;;5050714;28;20240;-63
2023/09/23 07:01:59;;;;;;;3.63;2.58;;;12.10;99.90;;;;;;5051855;28;20205;-63
2023/09/23 07:04:28;;;;;;;3.35;2.33;;;12.20;99.90;;;;;;5051575;28;20230;-63
2023/09/23 07:06:56;;;;;;;6.72;2.17;;;12.30;99.90;;;;;;5051709;28;20234;-63
2023/09/23 07:09:24;;;;;;;2.20;1.70;;;12.40;99.90;;;;;;5051593;28;20296;-63
2023/09/23 07:11:52;;;;;;;4.90;2.17;;;12.40;99.90;;;;;;5051782;28;20206;-63
2023/09/23 07:14:21;;;;;;;3.90;2.47;;;12.50;99.90;;;;;;5051074;28;20245;-63
2023/09/23 07:16:49;;;;;;;4.55;1.90;;;12.60;99.90;;;;;;5051474;28;20297;-63
2023/09/23 07:19:18;;;;;;;4.63;2.10;;;12.60;99.90;;;;;;5051330;28;20209;-63
2023/09/23 07:21:46;;;;;;;2.38;1.90;;;12.70;99.90;;;;;;5049443;28;20302;-63
2023/09/23 07:24:14;;;;;;;5.40;2.25;;;12.80;99.90;;;;;;5051311;28;20230;-63
2023/09/23 07:26:42;;;;;;;4.85;1.80;;;12.80;99.90;;;;;;5051378;28;20288;-63
2023/09/23 07:29:10;;;;;;;3.95;1.52;;;13.00;99.90;;;;;;5051110;28;20717;-63
2023/09/23 07:31:39;;;;;;;5.97;2.00;;;13.00;99.90;;;;;;5051231;28;20249;-63
2023/09/23 07:34:07;;;;;;;4.90;1.80;;;13.00;99.90;;;;;;5051164;28;20214;-63
2023/09/23 07:36:35;;;;;;;1.70;1.60;;;13.20;99.90;;;;;;5051192;28;20234;-63
2023/09/23 07:39:03;;;;;;;4.80;1.90;;;13.20;99.90;;;;;;5051099;28;20205;-63
2023/09/23 07:41:31;;;;;;;3.90;1.98;;;13.30;99.90;;;;;;5051222;28;20201;-63
2023/09/23 07:43:59;;;;;;;6.97;2.15;;;13.30;99.90;;;;;;5051283;28;20680;-63
2023/09/23 07:46:27;;;;;;;2.38;1.40;;;13.30;99.90;;;;;;5051076;28;20906;-63
2023/09/23 07:48:56;;;;;;;4.28;1.52;;;13.40;99.90;;;;;;5050824;28;20268;-63
2023/09/23 07:51:24;;;;;;;3.13;1.60;;;13.50;99.90;;;;;;5050870;28;20206;-63
2023/09/23 07:53:52;;;;;;;3.85;1.65;;;13.60;99.90;;;;;;5051209;28;20271;-63
2023/09/23 07:56:20;;;;;;;4.15;1.85;;;13.70;99.90;;;;;;5050749;28;20225;-63
2023/09/23 07:58:48;;;;;;;2.28;1.67;;;13.80;99.90;;;;;;5050230;28;20670;-64
2023/09/23 08:01:17;;;;;;;6.88;1.70;;;13.90;99.90;;;;;;5049827;28;20242;-63
2023/09/23 08:03:45;;;;;;;4.03;1.75;;;14.00;99.90;;;;;;5050649;28;20253;-63
2023/09/23 08:06:14;;;;;;;1.73;1.63;;;14.10;99.90;;;;;;5042693;28;20238;-62
2023/09/23 08:08:42;;;;;;;6.18;1.88;;;14.20;99.90;;;;;;5050823;28;20676;-62
2023/09/23 08:11:10;;;;;;;3.25;1.60;;;14.30;99.90;;;;;;5054799;28;20237;-62
2023/09/23 08:13:38;;;;;;;3.13;1.52;;;14.40;99.90;;;;;;5055138;28;20205;-62
2023/09/23 08:16:06;;;;;;;4.63;1.70;;;14.50;99.90;;;;;;5054790;28;20798;-62
2023/09/23 08:18:34;;;;;;;2.90;1.63;;;14.50;99.90;;;;;;5055015;28;20296;-62
2023/09/23 08:21:02;;;;;;;3.63;1.73;;;14.50;99.90;;;;;;5054840;28;20209;-62
2023/09/23 08:23:31;;;;;;;1.60;1.42;;;14.70;99.90;;;;;;5054402;28;20597;-62
2023/09/23 08:25:59;;;;;;;7.15;1.85;;;14.80;99.90;;;;;;5051208;28;20594;-62
2023/09/23 08:28:27;;;;;;;7.07;1.75;;;14.90;99.90;;;;;;5043734;28;20255;-62
2023/09/23 08:30:55;;;;;;;3.10;1.60;;;15.00;99.90;;;;;;5048895;28;20244;-63
2023/09/23 08:33:23;;;;;;;4.20;1.63;;;15.10;99.90;;;;;;5048737;28;20202;-63
2023/09/23 08:35:51;;;;;;;3.00;1.38;;;15.30;99.90;;;;;;5044262;28;20317;-63
2023/09/23 08:38:20;;;;;;;5.32;1.60;;;15.30;99.90;;;;;;5054013;28;20237;-63
2023/09/23 08:40:49;;;;;;;2.80;1.27;;;15.20;99.90;;;;;;5050671;28;20767;-60
2023/09/23 08:43:18;;;;;;;3.65;1.35;;;15.10;99.90;;;;;;5051205;28;20721;-60
2023/09/23 08:45:46;;;;;;;3.42;1.80;;;15.00;99.90;;;;;;5050714;28;20702;-60
2023/09/23 08:48:14;;;;;;;2.33;1.50;;;14.90;99.90;;;;;;5046374;28;20202;-59
2023/09/23 08:50:43;;;;;;;2.08;1.45;;;14.80;99.90;;;;;;5054209;28;20210;-60
2023/09/23 08:53:11;;;;;;;3.08;1.65;;;14.80;99.90;;;;;;5053712;28;20210;-59
2023/09/23 08:55:40;;;;;;;3.33;1.30;;;14.80;99.90;;;;;;5051233;28;20222;-59
2023/09/23 08:58:09;;;;;;;6.30;1.65;;;14.90;99.90;;;;;;5053255;28;20245;-59
2023/09/23 09:00:39;;;;;;;2.50;1.17;;;15.00;99.90;;;;;;5054065;28;20253;-60
2023/09/23 09:03:07;;;;;;;3.65;1.00;;;15.10;99.90;;;;;;5042644;28;20298;-59
2023/09/23 09:05:37;;;;;;;2.90;1.15;;;15.20;99.90;;;;;;5053572;28;20605;-59
2023/09/23 09:08:06;;;;;;;3.00;1.00;;;15.10;99.90;;;;;;5045720;28;20218;-60
2023/09/23 09:10:34;;;;;;;4.50;1.33;;;15.10;99.90;;;;;;5036116;28;20206;-60
2023/09/23 09:13:03;;;;;;;4.30;1.10;;;15.10;99.90;;;;;;5042030;28;20209;-60
2023/09/23 09:15:34;;;;;;;2.45;1.33;;;15.10;99.90;;;;;;5051284;28;20269;-60
2023/09/23 09:18:03;;;;;;;3.03;1.50;;;15.20;99.90;;;;;;5042340;28;20710;-60
2023/09/23 09:20:31;;;;;;;1.83;1.33;;;15.30;99.90;;;;;;5052677;28;20202;-60
2023/09/23 09:22:59;;;;;;;2.35;1.30;;;15.60;99.90;;;;;;5057594;28;20219;-60
2023/09/23 09:25:27;;;;;;;1.85;1.20;;;15.90;99.90;;;;;;5044847;28;20226;-60
2023/09/23 09:27:55;;;;;;;5.38;1.15;;;16.10;99.90;;;;;;5053537;28;20205;-60
2023/09/23 09:30:23;;;;;;;3.63;1.40;;;16.10;99.90;;;;;;5053493;28;20663;-61
2023/09/23 09:32:52;;;;;;;1.23;1.10;;;16.10;99.90;;;;;;5053508;28;20206;-61
2023/09/23 09:35:20;;;;;;;5.47;1.20;;;16.00;99.90;;;;;;5052998;28;20230;-61
2023/09/23 09:37:48;;;;;;;2.70;1.02;;;15.90;99.90;;;;;;5053279;28;20646;-61
2023/09/23 09:40:24;;;;;;;3.08;1.10;;;15.90;99.90;;;;;;5053746;28;20201;-60
2023/09/23 09:42:53;;;;;;;1.85;1.00;;;16.00;99.90;;;;;;5052027;28;20205;-60
2023/09/23 09:45:22;;;;;;;4.88;1.35;;;16.00;99.90;;;;;;5053085;28;20226;-61
2023/09/23 09:47:53;;;;;;;3.70;1.48;;;16.10;99.90;;;;;;5053365;28;20204;-61
2023/09/23 09:50:22;;;;;;;8.32;1.63;;;16.10;99.90;;;;;;5042675;28;20634;-60
2023/09/23 09:52:50;;;;;;;2.35;1.15;;;16.30;99.90;;;;;;5052860;28;20208;-61
2023/09/23 09:55:20;;;;;;;2.55;1.30;;;16.40;99.90;;;;;;5052886;28;20252;-61
2023/09/23 09:57:48;;;;;;;2.20;0.75;;;16.60;99.90;;;;;;5046617;28;20201;-62
2023/09/23 10:00:26;;;;;;;3.30;1.00;;;16.60;99.90;;;;;;5044356;28;20206;-61
2023/09/23 10:03:00;;;;;;;3.97;1.40;;;16.60;99.90;;;;;;5054489;28;20198;-61
2023/09/23 10:05:34;;;;;;;2.78;1.30;;;16.50;99.90;;;;;;5047717;28;20252;-61
2023/09/23 10:08:12;;;;;;;2.55;1.55;;;16.60;99.90;;;;;;5045713;28;20208;-61
2023/09/23 10:10:46;;;;;;;3.03;1.45;;;16.60;99.90;;;;;;5051872;28;20213;-62
2023/09/23 10:13:14;;;;;;;1.48;1.00;;;16.50;99.90;;;;;;5046425;28;20292;-62
2023/09/23 10:15:43;;;;;;;3.60;1.20;;;16.50;99.90;;;;;;5051927;28;20220;-61
2023/09/23 10:18:13;;;;;;;2.63;1.20;;;17.00;99.90;;;;;;5049304;28;20213;-62
2023/09/23 10:20:42;;;;;;;4.70;1.20;;;17.50;99.90;;;;;;5050389;28;20202;-61
2023/09/23 10:23:11;;;;;;;1.10;1.10;;;17.50;99.90;;;;;;5047737;28;20237;-61
2023/09/23 10:25:40;;;;;;;2.78;1.05;;;17.40;99.90;;;;;;5045971;28;20230;-61
2023/09/23 10:28:18;;;;;;;7.35;1.50;;;17.30;99.90;;;;;;5045833;28;20214;-61
2023/09/23 10:30:55;;;;;;;2.45;1.30;;;17.30;99.90;;;;;;5052330;28;20197;-61
2023/09/23 10:33:26;;;;;;;2.03;1.35;;;17.30;99.90;;;;;;5043305;28;20214;-61
2023/09/23 10:35:56;;;;;;;1.27;0.90;;;17.90;99.90;;;;;;5060396;22;20240;-71
2023/09/23 10:38:34;;;;;;;3.40;1.20;;;18.20;99.90;;;;;;5045906;28;20684;-71
2023/09/23 10:41:05;;;;;;;4.18;1.38;;;18.00;99.90;;;;;;5060251;28;20281;-71
2023/09/23 10:43:34;;;;;;;3.40;1.20;;;17.70;99.90;;;;;;5050510;28;20726;-71
2023/09/23 10:46:02;;;;;;;1.23;1.00;;;17.60;99.90;;;;;;5052845;28;20592;-71
2023/09/23 10:48:32;;;;;;;1.40;1.13;;;17.40;99.90;;;;;;5050776;28;20206;-71
2023/09/23 10:51:00;;;;;;;2.80;1.33;;;17.40;99.90;;;;;;5058813;28;20255;-71
2023/09/23 10:53:29;;;;;;;1.77;1.15;;;17.30;99.90;;;;;;5056437;28;20258;-71
2023/09/23 10:55:57;;;;;;;1.85;1.00;;;17.40;99.90;;;;;;5063618;28;20200;-71
2023/09/23 10:58:26;;;;;;;1.20;0.93;;;17.40;99.90;;;;;;5063284;28;20666;-71
2023/09/23 11:00:55;;;;;;;1.30;0.88;;;17.30;99.90;;;;;;5063747;28;20204;-71
2023/09/23 11:03:23;;;;;;;1.98;0.93;;;17.10;99.90;;;;;;5068249;28;20221;-71
2023/09/23 11:05:52;;;;;;;1.50;0.88;;;16.90;99.90;;;;;;5067844;28;20252;-71
2023/09/23 11:08:20;;;;;;;2.05;0.73;;;17.20;99.90;;;;;;5060026;28;20642;-71
2023/09/23 11:10:49;;;;;;;5.50;1.00;;;18.10;99.90;;;;;;5059741;28;20724;-71
2023/09/23 11:13:17;;;;;;;1.05;0.60;;;19.20;99.90;;;;;;5063091;28;20223;-71
2023/09/23 11:15:45;;;;;;;2.65;0.80;;;20.20;99.90;;;;;;5065063;28;20202;-71
2023/09/23 11:18:15;;;;;;;5.80;0.82;;;21.10;99.90;;;;;;5062062;28;20212;-71
2023/09/23 11:20:46;;;;;;;2.75;0.85;;;21.80;99.90;;;;;;5063264;28;20200;-71
2023/09/23 11:23:15;;;;;;;2.65;0.77;;;22.10;99.90;;;;;;5063618;28;20265;-71
2023/09/23 11:25:44;;;;;;;2.30;0.77;;;22.30;99.90;;;;;;5065874;28;20694;-71
2023/09/23 11:28:17;;;;;;;0.85;0.63;;;22.20;99.90;;;;;;5062767;28;20259;-71
2023/09/23 11:30:45;;;;;;;3.28;0.90;;;22.60;99.90;;;;;;5063741;28;20296;-71
2023/09/23 11:33:13;;;;;;;1.10;0.80;;;22.40;99.90;;;;;;5061612;28;20231;-71
2023/09/23 11:35:41;;;;;;;4.03;0.80;;;21.90;99.90;;;;;;5059642;28;20296;-71
2023/09/23 11:38:09;;;;;;;3.08;1.13;;;21.20;99.90;;;;;;5068029;28;20557;-71
2023/09/23 11:40:39;;;;;;;1.50;0.75;;;20.70;99.90;;;;;;5059514;28;20224;-71
2023/09/23 11:43:06;;;;;;;1.17;1.02;;;20.30;99.90;;;;;;5060999;28;20229;-71
2023/09/23 11:45:34;;;;;;;1.58;0.90;;;20.00;99.90;;;;;;5062517;28;20713;-71
2023/09/23 11:48:03;;;;;;;1.95;0.73;;;19.70;99.90;;;;;;5062012;28;20200;-71
2023/09/23 11:50:31;;;;;;;6.15;1.00;;;19.50;99.90;;;;;;5059326;28;20201;-71
2023/09/23 11:52:59;;;;;;;1.17;0.82;;;20.20;99.90;;;;;;5055021;28;20686;-71
2023/09/23 11:55:29;;;;;;;1.15;0.93;;;21.30;99.90;;;;;;5063129;28;20284;-71
2023/09/23 11:57:58;;;;;;;3.15;0.93;;;22.40;99.90;;;;;;5062775;28;20200;-71
2023/09/23 12:00:26;;;;;;;1.25;0.80;;;23.30;99.90;;;;;;5051045;28;20201;-71
2023/09/23 12:02:54;;;;;;;1.73;0.88;;;24.00;99.90;;;;;;5066959;28;20212;-71
2023/09/23 12:05:29;;;;;;;2.08;1.10;;;24.60;99.90;;;;;;5059611;28;20271;-71
2023/09/23 12:07:58;;;;;;;1.92;0.70;;;24.40;99.90;;;;;;5059307;28;20201;-71
2023/09/23 12:10:27;;;;;;;1.15;0.98;;;23.70;99.90;;;;;;5059065;28;20214;-71
2023/09/23 12:13:02;;;;;;;7.68;0.90;;;23.80;99.90;;;;;;5059338;28;20293;-71
2023/09/23 12:15:31;;;;;;;1.40;0.82;;;24.00;99.90;;;;;;5059119;28;20223;-71
2023/09/23 12:17:59;;;;;;;3.83;0.70;;;24.20;99.90;;;;;;5059234;28;20201;-71
2023/09/23 12:20:28;;;;;;;1.50;0.85;;;23.70;99.90;;;;;;5046720;28;20287;-71
2023/09/23 12:22:58;;;;;;;1.05;0.93;;;23.00;99.90;;;;;;5062924;28;20212;-71
2023/09/23 12:25:27;;;;;;;1.67;0.90;;;22.20;99.90;;;;;;5062634;28;20247;-71
2023/09/23 12:27:54;;;;;;;3.28;0.73;;;21.60;99.90;;;;;;5062234;28;20205;-71
2023/09/23 12:30:22;;;;;;;3.22;0.88;;;21.00;99.90;;;;;;5059375;28;20201;-71
2023/09/23 12:32:51;;;;;;;2.28;1.23;;;20.60;99.90;;;;;;5059828;28;20273;-71
2023/09/23 12:35:20;;;;;;;3.45;1.10;;;20.20;99.90;;;;;;5061703;28;20284;-71
2023/09/23 12:37:48;;;;;;;1.45;0.82;;;20.00;99.90;;;;;;5062683;28;20224;-71
2023/09/23 12:40:16;;;;;;;2.50;1.00;;;19.70;99.90;;;;;;5059783;28;20209;-71
2023/09/23 12:42:44;;;;;;;1.65;0.60;;;19.60;99.90;;;;;;5059054;28;20202;-71
2023/09/23 12:45:13;;;;;;;6.28;1.10;;;20.10;99.90;;;;;;5067310;28;20670;-71
2023/09/23 12:47:41;;;;;;;1.90;0.70;;;20.40;99.90;;;;;;5058944;28;20773;-71
2023/09/23 12:50:25;;;;;;;2.65;0.73;;;20.50;99.90;;;;;;5067040;28;20205;-71
2023/09/23 12:52:54;;;;;;;1.33;0.73;;;20.40;99.90;;;;;;5053744;28;20202;-71
2023/09/23 12:55:23;;;;;;;2.55;0.60;;;20.20;99.90;;;;;;5061822;28;20211;-71
2023/09/23 12:57:52;;;;;;;1.63;1.05;;;20.00;99.90;;;;;;5065487;28;20287;-71